Time;durP1;ratioP1;P1;durP2;ratioP2;P2;SDS_P1;SDS_P2;PMS_P1;PMS_P2;Temp;Humidity;BMP_temperature;BMP_pressure;BME280_temperature;BME280_humidity;BME280_pressure;Samples;Min_cycle;Max_cycle;Signal;HPM_P1;HPM_P2
2023/01/11 00:01:51;;;;;;;3.05;1.35;;;4.40;88.20;;;;;;5026331;28;20094;-71
2023/01/11 00:04:17;;;;;;;3.22;1.30;;;4.70;87.70;;;;;;5031374;28;20030;-71
2023/01/11 00:06:43;;;;;;;2.63;1.00;;;4.60;88.30;;;;;;5046377;28;20033;-72
2023/01/11 00:09:09;;;;;;;3.72;1.20;;;4.70;87.30;;;;;;5033260;28;20029;-71
2023/01/11 00:11:35;;;;;;;2.22;1.13;;;4.70;88.10;;;;;;5034023;28;20357;-71
2023/01/11 00:14:00;;;;;;;3.35;1.50;;;4.60;87.60;;;;;;5035241;28;20380;-71
2023/01/11 00:16:26;;;;;;;2.53;1.08;;;4.50;88.60;;;;;;5030297;28;20029;-71
2023/01/11 00:18:52;;;;;;;1.73;1.23;;;4.50;88.10;;;;;;5045650;28;20035;-71
2023/01/11 00:21:17;;;;;;;2.75;1.00;;;4.50;89.10;;;;;;5040453;28;20127;-71
2023/01/11 00:23:43;;;;;;;2.03;0.75;;;4.40;88.90;;;;;;5044575;28;20564;-71
2023/01/11 00:26:12;;;;;;;3.92;0.93;;;4.50;88.00;;;;;;5043598;28;20025;-71
2023/01/11 00:28:38;;;;;;;3.17;0.90;;;4.60;88.20;;;;;;5040072;28;20029;-71
2023/01/11 00:31:03;;;;;;;2.88;1.13;;;4.50;88.60;;;;;;5046520;28;20033;-71
2023/01/11 00:33:29;;;;;;;2.80;1.48;;;4.30;89.10;;;;;;5030818;28;20513;-71
2023/01/11 00:35:55;;;;;;;4.10;1.10;;;4.20;88.80;;;;;;5036112;28;20124;-71
2023/01/11 00:49:20;;;;;;;3.65;1.30;;;4.30;88.70;;;;;;5029333;28;20092;-71
2023/01/11 00:51:46;;;;;;;2.80;1.08;;;4.20;89.80;;;;;;5037146;28;20075;-71
2023/01/11 00:54:12;;;;;;;2.83;1.08;;;4.00;89.80;;;;;;5038916;28;20033;-71
2023/01/11 00:56:37;;;;;;;1.73;0.80;;;4.00;89.90;;;;;;5038364;28;20411;-71
2023/01/11 00:59:03;;;;;;;2.83;1.00;;;4.00;90.10;;;;;;5047669;28;20056;-71
2023/01/11 01:01:29;;;;;;;2.88;0.95;;;4.00;89.50;;;;;;5043552;28;20502;-71
2023/01/11 01:03:55;;;;;;;2.40;0.93;;;3.60;90.90;;;;;;5029432;28;20383;-71
2023/01/11 01:06:21;;;;;;;2.35;0.90;;;3.60;90.70;;;;;;5031530;28;20025;-71
2023/01/11 01:08:47;;;;;;;5.05;0.93;;;3.70;90.50;;;;;;5045308;28;20115;-71
2023/01/11 01:11:13;;;;;;;1.60;0.80;;;3.60;90.70;;;;;;5040171;28;20105;-71
2023/01/11 01:16:23;;;;;;;3.23;0.90;;;3.50;90.80;;;;;;5035317;28;20083;-71
2023/01/11 01:18:48;;;;;;;2.22;0.90;;;3.70;90.70;;;;;;5028237;28;20276;-71
2023/01/11 01:21:14;;;;;;;2.22;0.82;;;3.90;90.20;;;;;;5034266;28;20076;-71
2023/01/11 01:23:40;;;;;;;1.42;0.68;;;3.70;90.70;;;;;;5046585;28;20048;-71
2023/01/11 01:26:06;;;;;;;1.50;0.70;;;3.60;90.60;;;;;;5038992;28;20487;-71
2023/01/11 01:28:32;;;;;;;2.05;0.77;;;3.60;90.80;;;;;;5028536;28;20067;-71
2023/01/11 01:30:57;;;;;;;1.15;0.50;;;3.30;91.40;;;;;;5039483;28;20079;-71
2023/01/11 01:33:24;;;;;;;2.00;0.80;;;3.20;91.50;;;;;;5029078;28;20029;-71
2023/01/11 01:35:49;;;;;;;1.92;0.75;;;3.20;91.30;;;;;;5034112;28;20025;-71
2023/01/11 01:38:15;;;;;;;2.92;0.82;;;3.10;91.60;;;;;;5031120;28;20044;-71
2023/01/11 01:40:45;;;;;;;2.53;0.85;;;3.00;91.50;;;;;;5041404;28;20048;-71
2023/01/11 01:43:14;;;;;;;3.17;0.90;;;2.80;92.20;;;;;;5036672;28;20025;-71
2023/01/11 01:45:40;;;;;;;1.55;0.82;;;2.90;92.00;;;;;;5034356;28;20037;-71
2023/01/11 01:48:10;;;;;;;2.03;0.70;;;3.20;91.40;;;;;;5034448;28;20030;-71
2023/01/11 01:50:56;;;;;;;2.58;0.90;;;3.30;91.20;;;;;;5040310;28;20072;-71
2023/01/11 01:53:36;;;;;;;2.13;0.82;;;3.40;91.00;;;;;;5032783;28;20030;-71
2023/01/11 01:56:07;;;;;;;2.28;0.60;;;3.50;90.90;;;;;;5035331;28;20060;-71
2023/01/11 01:58:42;;;;;;;1.92;0.80;;;3.60;90.70;;;;;;5041397;28;20128;-71
2023/01/11 02:03:53;;;;;;;7.25;1.33;;;3.10;91.80;;;;;;5042518;28;20040;-71
2023/01/11 02:06:22;;;;;;;2.28;0.70;;;3.00;91.80;;;;;;5047492;28;20026;-71
2023/01/11 02:08:55;;;;;;;2.03;0.73;;;2.70;92.50;;;;;;5049457;28;20025;-71
2023/01/11 02:11:31;;;;;;;2.13;0.57;;;2.80;92.20;;;;;;5035141;28;20074;-71
2023/01/11 02:14:05;;;;;;;3.55;0.82;;;2.90;91.90;;;;;;5048092;28;20017;-71
2023/01/11 02:16:32;;;;;;;1.88;0.73;;;3.10;91.60;;;;;;5037225;28;20082;-71
2023/01/11 02:18:59;;;;;;;2.78;1.58;;;3.30;91.30;;;;;;5040689;28;20052;-71
2023/01/11 02:21:39;;;;;;;2.22;0.73;;;3.20;91.90;;;;;;5037577;28;20047;-71
2023/01/11 02:24:08;;;;;;;2.72;1.13;;;3.50;91.00;;;;;;5041241;28;20502;-71
2023/01/11 02:27:11;;;;;;;3.25;1.60;;;3.70;90.40;;;;;;5034298;28;20091;-71
2023/01/11 02:30:05;;;;;;;1.75;0.60;;;3.50;90.90;;;;;;5030989;28;20073;-71
2023/01/11 02:32:49;;;;;;;2.92;1.20;;;3.70;90.40;;;;;;5035107;28;20091;-71
2023/01/11 02:35:28;;;;;;;2.88;0.88;;;3.60;90.80;;;;;;5034364;28;20804;-71
2023/01/11 02:38:00;;;;;;;2.80;1.10;;;3.50;91.20;;;;;;5033163;28;20037;-71
2023/01/11 02:40:49;;;;;;;2.42;1.00;;;3.40;91.30;;;;;;5034220;28;20107;-71
2023/01/11 02:46:15;;;;;;;3.05;0.95;;;3.00;92.10;;;;;;5048569;28;20132;-71
2023/01/11 02:48:57;;;;;;;3.58;0.80;;;3.30;91.20;;;;;;5040095;28;20075;-71
2023/01/11 02:51:39;;;;;;;1.23;0.60;;;3.20;91.50;;;;;;5031389;28;20037;-71
2023/01/11 02:54:08;;;;;;;2.90;0.65;;;3.30;91.70;;;;;;5034045;28;20029;-71
2023/01/11 02:56:40;;;;;;;2.95;0.85;;;3.00;92.00;;;;;;5045810;28;20419;-71
2023/01/11 02:59:10;;;;;;;3.20;1.05;;;3.10;91.90;;;;;;5051144;28;20472;-71
2023/01/11 03:01:54;;;;;;;2.25;0.82;;;3.10;91.70;;;;;;5045151;28;20037;-69
2023/01/11 03:04:35;;;;;;;4.65;0.68;;;3.10;91.60;;;;;;5039201;28;20159;-69
2023/01/11 03:07:28;;;;;;;2.55;1.10;;;3.20;91.60;;;;;;5030685;28;20495;-69
2023/01/11 03:09:56;;;;;;;1.70;0.73;;;3.20;91.80;;;;;;5042045;28;20072;-69
2023/01/11 03:12:51;;;;;;;2.50;0.95;;;3.00;91.90;;;;;;5045290;28;20087;-69
2023/01/11 03:15:29;;;;;;;2.30;0.80;;;3.00;92.10;;;;;;5037081;28;20399;-69
2023/01/11 03:18:12;;;;;;;2.45;1.40;;;3.10;91.80;;;;;;5036666;28;20033;-69
2023/01/11 03:20:41;;;;;;;1.20;0.50;;;3.10;91.80;;;;;;5043294;28;20025;-69
2023/01/11 03:23:38;;;;;;;1.88;0.77;;;3.10;91.90;;;;;;5035838;28;20041;-69
2023/01/11 03:26:48;;;;;;;1.45;0.70;;;3.20;91.80;;;;;;5035129;28;20083;-69
2023/01/11 03:29:42;;;;;;;2.47;0.75;;;3.10;91.90;;;;;;5036734;28;20049;-69
2023/01/11 03:32:41;;;;;;;1.90;0.68;;;3.20;92.00;;;;;;5041156;28;20025;-69
2023/01/11 03:35:16;;;;;;;2.17;0.82;;;3.20;91.60;;;;;;5037636;28;20088;-69
2023/01/11 03:38:05;;;;;;;1.52;0.82;;;3.10;92.30;;;;;;5043673;28;20060;-70
2023/01/11 03:40:35;;;;;;;1.40;0.65;;;3.00;92.40;;;;;;5045836;28;20057;-69
2023/01/11 03:43:11;;;;;;;1.35;0.60;;;2.70;92.90;;;;;;5040981;28;20036;-69
2023/01/11 03:45:42;;;;;;;1.83;0.60;;;2.50;93.50;;;;;;5043707;28;20090;-69
2023/01/11 03:48:12;;;;;;;1.90;0.85;;;2.60;93.10;;;;;;5042729;28;20016;-69
2023/01/11 03:50:39;;;;;;;0.98;0.43;;;2.30;93.80;;;;;;5042183;28;20021;-69
2023/01/11 03:53:07;;;;;;;1.17;0.65;;;2.30;93.70;;;;;;5043990;28;20383;-70
2023/01/11 03:55:39;;;;;;;1.60;0.60;;;2.70;92.90;;;;;;5032357;28;20545;-70
2023/01/11 03:58:05;;;;;;;1.85;0.65;;;2.50;93.20;;;;;;5044272;28;20120;-69
2023/01/11 04:00:32;;;;;;;1.65;0.50;;;2.70;93.20;;;;;;5040536;28;20033;-70
2023/01/11 04:02:59;;;;;;;1.20;0.60;;;2.20;93.60;;;;;;5043535;28;20033;-70
2023/01/11 04:05:25;;;;;;;2.00;0.80;;;2.10;93.90;;;;;;5037680;28;20667;-71
2023/01/11 04:07:52;;;;;;;2.17;1.02;;;2.20;94.10;;;;;;5025082;28;20113;-70
2023/01/11 04:10:17;;;;;;;0.98;0.65;;;2.20;94.00;;;;;;5030936;28;20039;-71
2023/01/11 04:12:48;;;;;;;1.63;0.57;;;2.40;93.80;;;;;;5035168;28;20033;-70
2023/01/11 04:15:16;;;;;;;1.85;0.80;;;2.30;93.90;;;;;;5032452;28;20113;-71
2023/01/11 04:17:41;;;;;;;1.70;0.68;;;2.60;93.30;;;;;;5027792;28;20037;-71
2023/01/11 04:20:09;;;;;;;3.47;1.05;;;2.70;93.10;;;;;;5029693;28;20095;-71
2023/01/11 04:22:34;;;;;;;3.05;0.82;;;2.90;92.40;;;;;;5025135;28;20518;-70
2023/01/11 04:25:00;;;;;;;1.25;0.88;;;2.80;92.70;;;;;;5032553;28;20025;-70
2023/01/11 04:27:26;;;;;;;2.22;0.68;;;2.90;93.00;;;;;;5028755;28;20036;-70
2023/01/11 04:29:51;;;;;;;1.65;0.50;;;2.90;92.50;;;;;;5036210;28;20025;-70
2023/01/11 04:32:17;;;;;;;1.08;0.70;;;2.50;93.80;;;;;;5037021;28;20509;-70
2023/01/11 04:34:42;;;;;;;1.60;0.93;;;2.90;92.70;;;;;;5036939;28;20033;-71
2023/01/11 04:37:08;;;;;;;1.27;0.50;;;2.80;92.80;;;;;;5035824;28;20040;-70
2023/01/11 04:39:34;;;;;;;2.17;0.93;;;2.50;93.60;;;;;;5031632;28;20037;-70
2023/01/11 04:42:18;;;;;;;2.30;0.88;;;2.60;93.30;;;;;;5034022;28;20103;-71
2023/01/11 04:44:48;;;;;;;2.25;0.85;;;2.60;93.40;;;;;;5028804;28;20033;-70
2023/01/11 04:47:15;;;;;;;3.38;0.85;;;2.40;94.10;;;;;;5041245;28;20040;-70
2023/01/11 04:49:41;;;;;;;1.38;0.52;;;2.30;94.20;;;;;;5036840;28;20029;-70
2023/01/11 04:52:08;;;;;;;1.33;0.70;;;2.60;93.20;;;;;;5039348;28;20365;-70
2023/01/11 04:54:34;;;;;;;1.98;0.73;;;2.90;92.80;;;;;;5025941;28;20037;-70
2023/01/11 04:56:59;;;;;;;1.75;0.90;;;2.80;93.10;;;;;;5030423;28;20067;-70
2023/01/11 04:59:25;;;;;;;1.75;0.65;;;2.30;94.30;;;;;;5028779;28;20040;-70
2023/01/11 05:01:51;;;;;;;1.83;0.60;;;2.40;93.90;;;;;;5027489;28;20044;-70
2023/01/11 05:04:16;;;;;;;0.40;0.32;;;2.20;94.30;;;;;;5022345;28;20040;-70
2023/01/11 05:06:42;;;;;;;1.70;0.50;;;2.40;94.00;;;;;;5029107;28;20029;-70
2023/01/11 05:09:16;;;;;;;1.23;0.60;;;2.40;94.40;;;;;;5026913;28;20414;-71
2023/01/11 05:11:42;;;;;;;1.55;0.50;;;2.60;93.50;;;;;;5026450;28;20021;-70
2023/01/11 05:14:07;;;;;;;1.30;0.50;;;2.80;93.40;;;;;;5026810;28;20026;-70
2023/01/11 05:16:33;;;;;;;1.15;0.55;;;3.00;93.10;;;;;;5024250;28;20102;-70
2023/01/11 05:19:03;;;;;;;4.78;0.73;;;2.80;93.70;;;;;;5039379;28;20041;-70
2023/01/11 05:21:32;;;;;;;1.48;0.52;;;2.70;93.00;;;;;;5021597;28;20065;-70
2023/01/11 05:23:59;;;;;;;1.98;1.48;;;2.90;93.00;;;;;;5023615;28;20444;-70
2023/01/11 05:26:30;;;;;;;2.95;1.00;;;3.10;92.50;;;;;;5028232;28;20068;-70
2023/01/11 05:28:59;;;;;;;1.08;0.68;;;2.90;93.10;;;;;;5034099;28;20025;-71
2023/01/11 05:31:25;;;;;;;1.75;0.65;;;2.90;92.70;;;;;;5031037;28;20029;-70
2023/01/11 05:33:51;;;;;;;2.25;1.17;;;2.90;93.10;;;;;;5029075;28;20029;-70
2023/01/11 05:36:19;;;;;;;1.35;0.55;;;2.80;93.20;;;;;;5028995;28;20527;-70
2023/01/11 05:38:46;;;;;;;2.55;0.70;;;2.70;93.30;;;;;;5024027;28;20038;-70
2023/01/11 05:41:12;;;;;;;0.93;0.65;;;2.70;93.10;;;;;;5028845;28;20120;-70
2023/01/11 05:46:26;;;;;;;1.40;0.60;;;2.70;93.30;;;;;;5028012;28;20095;-70
2023/01/11 05:48:54;;;;;;;1.05;0.52;;;2.60;93.40;;;;;;5028503;28;20033;-71
2023/01/11 05:51:20;;;;;;;1.75;0.70;;;2.70;93.30;;;;;;5028185;28;20029;-70
2023/01/11 05:53:46;;;;;;;1.98;0.60;;;2.90;92.60;;;;;;5027235;28;20426;-71
2023/01/11 05:56:12;;;;;;;1.33;0.60;;;2.90;92.90;;;;;;5025948;28;20040;-70
2023/01/11 05:58:38;;;;;;;1.80;0.60;;;2.90;92.70;;;;;;5034372;28;20073;-70
2023/01/11 06:01:04;;;;;;;2.50;1.08;;;2.70;93.20;;;;;;5032930;28;20667;-70
2023/01/11 06:03:30;;;;;;;4.28;2.17;;;2.60;93.60;;;;;;5033248;28;20080;-70
2023/01/11 06:05:58;;;;;;;5.00;2.50;;;2.60;94.00;;;;;;5024687;28;20052;-70
2023/01/11 06:08:24;;;;;;;4.32;1.58;;;2.40;94.70;;;;;;5022445;28;20052;-70
2023/01/11 06:10:54;;;;;;;2.25;1.10;;;2.30;95.30;;;;;;5031313;28;20037;-70
2023/01/11 06:13:26;;;;;;;2.70;1.00;;;2.10;95.10;;;;;;5029015;28;20033;-70
2023/01/11 06:16:03;;;;;;;2.08;0.80;;;2.50;94.00;;;;;;5022735;28;20029;-70
2023/01/11 06:18:32;;;;;;;4.70;0.68;;;2.50;94.10;;;;;;5028888;28;20029;-70
2023/01/11 06:20:58;;;;;;;4.25;2.03;;;2.50;94.10;;;;;;5026791;28;20094;-70
2023/01/11 06:23:25;;;;;;;2.67;0.93;;;2.50;94.20;;;;;;5033853;28;20033;-70
2023/01/11 06:25:51;;;;;;;2.60;1.20;;;2.40;94.50;;;;;;5029932;28;20029;-71
2023/01/11 06:28:17;;;;;;;4.47;0.90;;;2.40;95.70;;;;;;5043154;28;20029;-70
2023/01/11 06:30:43;;;;;;;1.98;0.90;;;2.40;94.90;;;;;;5037743;28;20025;-71
2023/01/11 06:33:08;;;;;;;3.45;1.10;;;2.40;95.00;;;;;;5021489;28;20083;-71
2023/01/11 06:35:42;;;;;;;6.20;0.93;;;2.60;97.10;;;;;;5026927;28;20083;-71
2023/01/11 06:38:10;;;;;;;0.98;0.45;;;2.60;93.80;;;;;;5026509;28;20123;-71
2023/01/11 06:40:37;;;;;;;2.22;0.85;;;2.60;93.60;;;;;;5040202;28;20029;-71
2023/01/11 06:43:03;;;;;;;2.40;1.10;;;2.60;93.70;;;;;;5027261;28;20033;-70
2023/01/11 06:45:30;;;;;;;3.63;1.63;;;2.60;94.20;;;;;;5034595;28;20045;-71
2023/01/11 06:47:56;;;;;;;2.58;1.00;;;2.40;94.80;;;;;;5030773;28;20029;-71
2023/01/11 06:50:21;;;;;;;1.67;0.70;;;2.30;95.20;;;;;;5035030;28;20032;-73
2023/01/11 06:53:00;;;;;;;1.35;0.45;;;2.10;94.80;;;;;;5021982;28;20171;-70
2023/01/11 06:55:27;;;;;;;2.78;0.80;;;1.90;95.90;;;;;;5040815;28;20024;-71
2023/01/11 06:57:53;;;;;;;1.92;1.00;;;1.80;96.20;;;;;;5038515;28;20102;-71
2023/01/11 07:00:20;;;;;;;2.92;0.98;;;1.80;95.70;;;;;;5030344;28;20025;-71
2023/01/11 07:02:46;;;;;;;3.72;0.93;;;1.90;95.90;;;;;;5038060;28;20029;-71
2023/01/11 07:05:12;;;;;;;1.98;0.73;;;2.10;94.90;;;;;;5029687;28;20383;-71
2023/01/11 07:07:39;;;;;;;1.63;0.88;;;2.40;94.10;;;;;;5036743;28;20538;-71
2023/01/11 07:10:07;;;;;;;2.60;0.88;;;2.60;93.60;;;;;;5026061;28;20057;-71
2023/01/11 07:12:34;;;;;;;2.00;0.70;;;2.60;93.80;;;;;;5034243;28;20368;-71
2023/01/11 07:15:00;;;;;;;1.67;0.60;;;2.40;94.60;;;;;;5024981;28;20029;-71
2023/01/11 07:17:25;;;;;;;1.77;0.68;;;2.40;94.40;;;;;;5037383;28;20419;-71
2023/01/11 07:19:51;;;;;;;2.65;0.75;;;2.30;94.30;;;;;;5031262;28;20033;-71
2023/01/11 07:22:17;;;;;;;1.02;0.40;;;2.10;94.90;;;;;;5028902;28;20049;-71
2023/01/11 07:24:42;;;;;;;2.35;1.08;;;2.10;94.90;;;;;;5023590;28;20025;-71
2023/01/11 07:27:08;;;;;;;2.10;0.63;;;2.20;94.90;;;;;;5028825;28;20086;-71
2023/01/11 07:29:34;;;;;;;2.90;1.10;;;2.20;94.50;;;;;;5034094;28;20387;-71
2023/01/11 07:31:59;;;;;;;3.42;1.10;;;2.40;94.00;;;;;;5031978;28;20041;-71
2023/01/11 07:34:25;;;;;;;2.85;1.05;;;2.40;94.20;;;;;;5038619;28;20950;-71
2023/01/11 07:36:51;;;;;;;3.47;1.02;;;2.40;94.00;;;;;;5024824;28;20042;-71
2023/01/11 07:39:16;;;;;;;2.08;1.00;;;2.60;93.90;;;;;;5032394;28;20041;-71
2023/01/11 07:44:27;;;;;;;2.78;0.98;;;2.80;93.30;;;;;;5025508;28;20543;-71
2023/01/11 07:46:53;;;;;;;4.75;1.60;;;2.80;93.40;;;;;;5030448;28;20026;-71
2023/01/11 07:49:18;;;;;;;6.68;2.60;;;2.80;93.30;;;;;;5023309;28;20055;-71
2023/01/11 07:51:44;;;;;;;6.15;2.17;;;2.60;94.80;;;;;;5026629;28;20025;-71
2023/01/11 07:54:10;;;;;;;5.03;2.08;;;2.30;95.80;;;;;;5030207;28;20032;-71
2023/01/11 07:56:35;;;;;;;5.32;2.20;;;2.50;95.80;;;;;;5034050;28;20107;-71
2023/01/11 07:59:01;;;;;;;5.40;2.65;;;2.40;96.20;;;;;;5028786;28;20108;-71
2023/01/11 08:01:27;;;;;;;5.63;2.40;;;2.30;96.40;;;;;;5030202;28;20065;-71
2023/01/11 08:03:52;;;;;;;8.93;3.15;;;2.30;96.70;;;;;;5033795;28;20094;-71
2023/01/11 08:06:18;;;;;;;7.40;2.47;;;2.40;96.40;;;;;;5029185;28;20033;-73
2023/01/11 08:08:44;;;;;;;4.50;2.00;;;2.40;96.30;;;;;;5025313;28;20044;-71
2023/01/11 08:16:39;;;;;;;4.07;1.40;;;2.30;97.60;;;;;;5029733;28;20049;-71
2023/01/11 08:19:04;;;;;;;4.07;1.77;;;2.40;97.50;;;;;;5027456;28;20033;-71
2023/01/11 08:21:30;;;;;;;4.90;1.55;;;2.40;97.20;;;;;;5035097;28;20060;-71
2023/01/11 08:23:57;;;;;;;3.22;1.25;;;2.60;96.20;;;;;;5027347;28;20029;-71
2023/01/11 08:26:24;;;;;;;3.65;1.45;;;2.60;95.90;;;;;;5032707;28;20128;-71
2023/01/11 08:28:50;;;;;;;2.15;0.80;;;2.60;96.10;;;;;;5029567;28;20025;-71
2023/01/11 08:31:16;;;;;;;2.70;1.25;;;2.80;95.50;;;;;;5029941;28;20055;-71
2023/01/11 08:33:41;;;;;;;5.75;1.95;;;3.00;95.40;;;;;;5034772;28;20074;-71
2023/01/11 08:36:09;;;;;;;6.13;2.83;;;2.70;97.00;;;;;;5034461;28;20654;-72
2023/01/11 08:38:35;;;;;;;3.60;1.63;;;2.70;96.50;;;;;;5032622;28;20499;-71
2023/01/11 08:41:02;;;;;;;4.53;1.52;;;2.70;96.00;;;;;;5029642;28;20025;-71
2023/01/11 08:43:30;;;;;;;3.15;1.27;;;2.90;96.60;;;;;;5026223;28;20034;-71
2023/01/11 08:45:56;;;;;;;3.17;1.58;;;3.00;96.60;;;;;;5027978;28;20032;-72
2023/01/11 08:48:22;;;;;;;3.53;1.55;;;3.10;95.50;;;;;;5029401;28;20036;-72
2023/01/11 08:50:47;;;;;;;6.25;1.85;;;3.20;95.70;;;;;;5034379;28;20036;-71
2023/01/11 08:53:14;;;;;;;5.20;2.00;;;3.20;96.20;;;;;;5033258;28;20037;-73
2023/01/11 08:55:43;;;;;;;4.38;2.35;;;3.10;95.90;;;;;;5024351;28;20078;-72
2023/01/11 08:58:09;;;;;;;5.22;2.65;;;3.10;95.80;;;;;;5025031;28;20048;-72
2023/01/11 09:00:35;;;;;;;6.03;2.33;;;3.30;96.30;;;;;;5025551;28;20090;-72
2023/01/11 09:03:01;;;;;;;6.57;2.83;;;3.40;95.90;;;;;;5036851;28;20104;-72
2023/01/11 09:05:26;;;;;;;2.97;1.25;;;3.60;97.20;;;;;;5034547;28;20029;-72
2023/01/11 09:07:55;;;;;;;3.58;1.88;;;3.40;94.80;;;;;;5026627;28;20021;-72
2023/01/11 09:10:25;;;;;;;4.20;1.90;;;3.50;94.70;;;;;;5035917;28;20025;-72
2023/01/11 09:12:54;;;;;;;6.18;2.05;;;3.70;95.00;;;;;;5039091;28;20455;-72
2023/01/11 09:15:19;;;;;;;7.68;2.10;;;3.70;95.60;;;;;;5038803;28;20040;-73
2023/01/11 09:17:46;;;;;;;3.55;1.60;;;3.70;95.10;;;;;;5025215;28;20033;-72
2023/01/11 09:20:12;;;;;;;8.45;2.20;;;3.70;94.90;;;;;;5030218;28;20495;-72
2023/01/11 09:22:38;;;;;;;3.72;1.90;;;3.80;95.30;;;;;;5024084;28;20046;-72
2023/01/11 09:25:04;;;;;;;5.28;1.58;;;3.70;94.60;;;;;;5031141;28;20032;-72
2023/01/11 09:27:30;;;;;;;7.20;3.05;;;3.80;95.00;;;;;;5034020;28;20530;-72
2023/01/11 09:29:55;;;;;;;6.00;2.58;;;3.90;95.10;;;;;;5025010;28;20030;-72
2023/01/11 09:32:21;;;;;;;5.10;2.03;;;3.90;95.20;;;;;;5031156;28;20033;-72
2023/01/11 09:34:48;;;;;;;5.45;2.08;;;4.00;94.80;;;;;;5035101;28;20038;-72
2023/01/11 09:37:15;;;;;;;5.57;1.60;;;4.00;94.90;;;;;;5028742;28;20049;-72
2023/01/11 09:39:41;;;;;;;4.55;1.67;;;4.00;94.70;;;;;;5032149;28;20026;-72
2023/01/11 09:42:30;;;;;;;4.72;1.77;;;4.10;94.50;;;;;;5036041;28;20029;-72
2023/01/11 09:45:06;;;;;;;3.45;1.45;;;4.20;94.10;;;;;;5027198;28;20495;-73
2023/01/11 09:47:40;;;;;;;3.08;1.35;;;4.30;94.70;;;;;;5025428;28;20033;-72
2023/01/11 09:50:13;;;;;;;8.55;2.42;;;4.30;94.30;;;;;;5034992;28;20039;-72
2023/01/11 09:52:44;;;;;;;4.73;2.07;;;4.30;95.00;;;;;;5048303;28;20036;-72
2023/01/11 09:55:23;;;;;;;6.85;1.52;;;4.20;94.20;;;;;;5044687;28;20037;-72
2023/01/11 09:58:28;;;;;;;3.65;2.00;;;4.30;93.90;;;;;;5028156;28;20115;-72
2023/01/11 10:01:20;;;;;;;4.68;2.10;;;4.30;93.60;;;;;;5036694;28;20463;-72
2023/01/11 10:03:57;;;;;;;5.53;2.65;;;4.40;93.90;;;;;;5023510;28;20068;-72
2023/01/11 10:06:32;;;;;;;7.47;2.38;;;4.50;94.20;;;;;;5047840;28;20053;-72
2023/01/11 10:09:19;;;;;;;6.05;2.33;;;4.40;94.60;;;;;;5047555;28;20090;-72
2023/01/11 10:12:02;;;;;;;5.20;2.60;;;4.50;94.40;;;;;;5048024;28;20033;-72
2023/01/11 10:14:57;;;;;;;7.18;3.75;;;4.50;94.70;;;;;;5047186;28;20025;-72
2023/01/11 10:17:41;;;;;;;6.10;3.03;;;4.30;94.90;;;;;;5047601;28;20503;-72
2023/01/11 10:20:23;;;;;;;5.65;2.40;;;4.20;94.70;;;;;;5047872;28;20324;-72
2023/01/11 10:22:56;;;;;;;6.25;2.83;;;4.20;94.80;;;;;;5047394;28;20494;-72
2023/01/11 10:25:32;;;;;;;4.97;2.00;;;4.20;94.50;;;;;;5046937;28;20079;-72
2023/01/11 10:28:34;;;;;;;7.32;2.03;;;4.20;94.20;;;;;;5050840;28;20021;-72
2023/01/11 10:31:27;;;;;;;7.38;2.97;;;4.30;94.50;;;;;;5051833;28;20029;-72
2023/01/11 10:40:32;;;;;;;5.30;2.10;;;4.60;94.10;;;;;;5031483;28;20088;-72
2023/01/11 10:43:24;;;;;;;5.88;2.22;;;4.70;93.70;;;;;;5031918;28;20032;-72
2023/01/11 10:46:19;;;;;;;3.63;1.65;;;4.70;93.40;;;;;;5041240;28;20032;-72
2023/01/11 10:48:45;;;;;;;3.80;1.83;;;4.60;93.40;;;;;;5025401;28;20048;-72
2023/01/11 10:51:35;;;;;;;4.13;1.42;;;4.80;93.40;;;;;;5036564;28;20036;-72
2023/01/11 10:54:15;;;;;;;4.32;1.80;;;5.00;93.70;;;;;;5027744;28;20083;-72
2023/01/11 10:57:02;;;;;;;4.07;1.67;;;5.20;93.60;;;;;;5044479;28;20025;-72
2023/01/11 10:59:55;;;;;;;4.95;2.15;;;5.30;92.90;;;;;;5043558;28;20029;-72
2023/01/11 11:02:23;;;;;;;6.05;2.65;;;5.30;93.40;;;;;;5032498;28;20454;-72
2023/01/11 11:05:04;;;;;;;4.25;1.50;;;5.50;93.80;;;;;;5028477;28;20037;-72
2023/01/11 11:07:42;;;;;;;3.75;1.40;;;5.50;93.00;;;;;;5030086;28;20030;-72
2023/01/11 11:10:31;;;;;;;3.67;1.35;;;5.60;92.90;;;;;;5037607;28;20033;-72
2023/01/11 11:13:17;;;;;;;4.82;1.50;;;5.20;92.30;;;;;;5035228;28;20073;-72
2023/01/11 11:16:03;;;;;;;3.50;1.25;;;5.30;92.30;;;;;;5036803;28;20635;-72
2023/01/11 11:18:28;;;;;;;2.55;1.17;;;5.30;92.30;;;;;;5035447;28;20625;-72
2023/01/11 11:21:01;;;;;;;5.28;1.67;;;5.30;93.60;;;;;;5033528;28;20017;-72
2023/01/11 11:23:28;;;;;;;2.95;1.42;;;5.30;93.70;;;;;;5029954;28;20068;-72
2023/01/11 11:26:00;;;;;;;6.05;2.33;;;5.30;93.60;;;;;;5033789;28;20105;-72
2023/01/11 11:28:32;;;;;;;2.78;1.30;;;5.30;93.60;;;;;;5026093;28;20030;-72
2023/01/11 11:31:04;;;;;;;3.58;1.45;;;5.40;93.10;;;;;;5027431;28;20026;-72
2023/01/11 11:33:38;;;;;;;3.42;1.60;;;5.50;92.80;;;;;;5033726;28;20059;-72
2023/01/11 11:36:08;;;;;;;5.15;1.77;;;5.60;92.70;;;;;;5034415;28;20029;-72
2023/01/11 11:38:37;;;;;;;4.45;1.58;;;5.70;92.60;;;;;;5024497;28;20029;-72
2023/01/11 11:41:15;;;;;;;6.38;1.52;;;5.70;92.70;;;;;;5029200;28;20025;-72
2023/01/11 11:43:43;;;;;;;3.67;1.40;;;5.90;92.60;;;;;;5040530;28;20033;-72
2023/01/11 11:46:29;;;;;;;3.28;1.58;;;6.00;91.80;;;;;;5034762;28;20542;-72
2023/01/11 11:49:17;;;;;;;3.03;1.38;;;6.00;91.30;;;;;;5038887;28;20053;-72
2023/01/11 11:51:44;;;;;;;5.82;1.80;;;6.10;92.00;;;;;;5035117;28;20068;-72
2023/01/11 11:54:17;;;;;;;2.88;1.35;;;5.90;91.30;;;;;;5029929;28;20025;-72
2023/01/11 11:56:43;;;;;;;3.30;1.60;;;6.00;92.10;;;;;;5030150;28;20176;-72
2023/01/11 11:59:13;;;;;;;4.40;1.45;;;6.10;92.40;;;;;;5029769;28;20495;-72
2023/01/11 12:01:48;;;;;;;4.15;1.63;;;6.20;92.20;;;;;;5033676;28;20033;-72
2023/01/11 12:04:19;;;;;;;3.08;1.45;;;6.00;92.50;;;;;;5032658;28;20395;-72
2023/01/11 12:07:03;;;;;;;10.98;4.00;;;6.00;92.40;;;;;;5025175;28;20160;-72
2023/01/11 12:09:31;;;;;;;6.18;2.75;;;6.00;92.40;;;;;;5031171;28;20069;-72
2023/01/11 12:11:57;;;;;;;8.00;2.55;;;6.00;92.80;;;;;;5033580;28;20107;-72
2023/01/11 12:14:31;;;;;;;8.43;2.25;;;6.10;92.50;;;;;;5040130;28;20088;-72
2023/01/11 12:16:58;;;;;;;3.72;1.45;;;6.10;92.40;;;;;;5031118;28;20120;-72
2023/01/11 12:19:28;;;;;;;5.90;3.65;;;5.90;92.20;;;;;;5027851;28;20056;-72
2023/01/11 12:22:11;;;;;;;6.07;2.55;;;6.00;92.70;;;;;;5038961;28;21005;-72
2023/01/11 12:24:36;;;;;;;4.75;1.88;;;6.20;92.50;;;;;;5033455;28;20022;-72
2023/01/11 12:27:10;;;;;;;7.80;4.20;;;6.20;92.50;;;;;;5032152;28;20017;-72
2023/01/11 12:29:43;;;;;;;4.88;2.28;;;6.20;92.30;;;;;;5033324;28;20475;-72
2023/01/11 12:32:40;;;;;;;3.53;1.67;;;6.30;92.70;;;;;;5031927;28;20541;-72
2023/01/11 12:35:40;;;;;;;15.40;3.70;;;6.50;92.30;;;;;;5041211;28;20104;-72
2023/01/11 12:38:18;;;;;;;7.63;4.50;;;6.40;92.00;;;;;;5018221;28;20041;-72
2023/01/11 12:40:43;;;;;;;5.32;2.92;;;6.40;92.50;;;;;;5036384;28;20029;-72
2023/01/11 12:43:24;;;;;;;5.40;2.15;;;6.40;92.70;;;;;;5035463;28;20129;-72
2023/01/11 12:46:37;;;;;;;4.15;2.22;;;6.30;92.60;;;;;;5033890;28;20155;-72
2023/01/11 12:49:24;;;;;;;5.38;1.98;;;6.20;92.00;;;;;;5007382;28;20072;-72
2023/01/11 12:51:57;;;;;;;5.13;2.28;;;6.20;92.90;;;;;;5025686;28;20026;-72
2023/01/11 12:54:32;;;;;;;3.95;1.58;;;6.20;92.50;;;;;;5037145;28;20033;-72
2023/01/11 12:57:11;;;;;;;5.57;2.35;;;6.10;91.60;;;;;;5039546;28;20183;-72
2023/01/11 12:59:54;;;;;;;2.47;1.20;;;6.20;92.00;;;;;;5027151;28;20031;-72
2023/01/11 13:02:41;;;;;;;4.35;1.20;;;6.20;91.20;;;;;;5034847;28;20037;-72
2023/01/11 13:05:30;;;;;;;3.40;1.52;;;6.40;91.60;;;;;;5039316;28;20030;-72
2023/01/11 13:08:43;;;;;;;5.25;2.33;;;6.40;92.80;;;;;;5025419;28;20060;-72
2023/01/11 13:11:36;;;;;;;10.63;5.57;;;6.30;92.50;;;;;;5013820;28;20065;-72
2023/01/11 13:14:25;;;;;;;5.78;2.90;;;6.40;92.30;;;;;;5011350;28;20038;-72
2023/01/11 13:16:53;;;;;;;5.00;2.70;;;6.30;92.70;;;;;;5019660;28;20095;-72
2023/01/11 13:19:36;;;;;;;13.48;3.78;;;6.30;92.50;;;;;;5040328;28;20037;-72
2023/01/11 13:22:04;;;;;;;9.23;2.83;;;6.30;92.80;;;;;;5034765;28;20843;-72
2023/01/11 13:24:31;;;;;;;9.48;2.40;;;6.30;92.00;;;;;;5034680;28;20039;-72
2023/01/11 13:27:04;;;;;;;7.20;1.60;;;6.20;92.30;;;;;;5032104;28;20083;-72
2023/01/11 13:29:36;;;;;;;8.88;2.50;;;6.10;93.00;;;;;;5028203;28;20033;-72
2023/01/11 13:32:06;;;;;;;7.22;2.78;;;6.20;93.10;;;;;;5030069;28;20052;-72
2023/01/11 13:34:47;;;;;;;5.00;1.90;;;6.20;92.90;;;;;;5037543;28;20029;-72
2023/01/11 13:37:33;;;;;;;6.80;1.63;;;6.20;92.90;;;;;;5036666;28;20056;-72
2023/01/11 13:40:21;;;;;;;4.95;1.55;;;6.20;92.50;;;;;;5024783;28;20099;-72
2023/01/11 13:43:08;;;;;;;4.32;1.67;;;6.20;92.50;;;;;;5026256;28;20026;-72
2023/01/11 13:45:36;;;;;;;2.45;1.20;;;6.20;92.70;;;;;;5023755;28;20037;-72
2023/01/11 13:48:33;;;;;;;3.83;1.88;;;6.30;93.10;;;;;;5027115;28;20076;-72
2023/01/11 13:51:17;;;;;;;8.30;1.75;;;6.30;93.30;;;;;;5027480;28;20045;-72
2023/01/11 13:53:48;;;;;;;4.97;2.20;;;6.40;93.00;;;;;;5041571;28;20040;-71
2023/01/11 13:56:27;;;;;;;6.93;1.75;;;6.30;92.70;;;;;;5032052;28;20116;-72
2023/01/11 13:58:57;;;;;;;3.97;1.40;;;6.40;92.80;;;;;;5043756;28;20037;-72
2023/01/11 14:01:52;;;;;;;6.60;1.95;;;6.30;93.30;;;;;;5033911;28;20093;-72